createdAt,value
2018-07-20T00:02:09.209Z,18.92
2018-07-20T00:04:37.529Z,18.87
2018-07-20T00:07:05.837Z,18.80
2018-07-20T00:09:34.180Z,18.76
2018-07-20T00:12:02.519Z,18.76
2018-07-20T00:14:30.915Z,18.76
2018-07-20T00:16:59.267Z,18.78
2018-07-20T00:19:27.575Z,18.72
2018-07-20T00:21:55.925Z,18.65
2018-07-20T00:24:24.297Z,18.62
2018-07-20T00:26:52.634Z,18.63
2018-07-20T00:29:20.999Z,18.65
2018-07-20T00:31:49.338Z,18.65
2018-07-20T00:34:17.620Z,18.64
2018-07-20T00:36:45.955Z,18.60
2018-07-20T00:39:14.261Z,18.53
2018-07-20T00:41:42.612Z,18.47
2018-07-20T00:44:10.955Z,18.39
2018-07-20T00:46:39.286Z,18.35
2018-07-20T00:49:07.596Z,18.34
2018-07-20T00:51:35.960Z,18.34
2018-07-20T00:54:04.450Z,18.30
2018-07-20T00:56:32.793Z,18.27
2018-07-20T00:59:01.125Z,18.26
2018-07-20T01:01:29.580Z,18.27
2018-07-20T01:03:57.943Z,18.27
2018-07-20T01:06:26.427Z,18.26
2018-07-20T01:08:54.748Z,18.22
2018-07-20T01:11:23.133Z,18.19
2018-07-20T01:13:51.503Z,18.19
2018-07-20T01:16:20.399Z,18.20
2018-07-20T01:18:48.771Z,18.25
2018-07-20T01:21:17.201Z,18.24
2018-07-20T01:23:45.521Z,18.21
2018-07-20T01:26:13.890Z,18.20
2018-07-20T01:28:42.210Z,18.13
2018-07-20T01:31:10.562Z,18.08
2018-07-20T01:33:38.906Z,18.01
2018-07-20T01:36:07.239Z,17.99
2018-07-20T01:38:35.631Z,17.94
2018-07-20T01:41:04.048Z,17.84
2018-07-20T01:43:32.395Z,17.76
2018-07-20T01:46:00.792Z,17.71
2018-07-20T01:48:29.269Z,17.73
2018-07-20T01:50:57.605Z,17.73
2018-07-20T01:53:25.955Z,17.70
2018-07-20T01:55:54.291Z,17.67
2018-07-20T01:58:22.651Z,17.62
2018-07-20T02:00:51.048Z,17.56
2018-07-20T02:03:19.448Z,17.51
2018-07-20T02:05:47.803Z,17.49
2018-07-20T02:08:16.108Z,17.49
2018-07-20T02:10:44.437Z,17.48
2018-07-20T02:13:12.800Z,17.49
2018-07-20T02:15:41.203Z,17.53
2018-07-20T02:18:09.497Z,17.55
2018-07-20T02:20:37.811Z,17.51
2018-07-20T02:23:06.275Z,17.49
2018-07-20T02:25:34.643Z,17.45
2018-07-20T02:28:02.999Z,17.43
2018-07-20T02:30:31.349Z,17.42
2018-07-20T02:32:59.667Z,17.40
2018-07-20T02:35:27.993Z,17.35
2018-07-20T02:37:56.448Z,17.28
2018-07-20T02:40:24.775Z,17.21
2018-07-20T02:42:53.090Z,17.13
2018-07-20T02:45:21.403Z,17.07
2018-07-20T02:47:49.850Z,17.05
2018-07-20T02:50:18.168Z,17.02
2018-07-20T02:52:46.593Z,16.99
2018-07-20T02:55:14.903Z,17.03
2018-07-20T02:57:43.369Z,17.02
2018-07-20T03:00:11.748Z,16.99
2018-07-20T03:02:40.078Z,16.97
2018-07-20T03:05:08.430Z,16.93
2018-07-20T03:07:36.782Z,16.90
2018-07-20T03:10:05.704Z,16.86
2018-07-20T03:12:34.071Z,16.82
2018-07-20T03:15:02.380Z,16.81
2018-07-20T03:17:30.808Z,16.80
2018-07-20T03:19:59.189Z,16.82
2018-07-20T03:22:27.540Z,16.80
2018-07-20T03:24:55.916Z,16.81
2018-07-20T03:27:24.256Z,16.82
2018-07-20T03:29:52.625Z,16.84
2018-07-20T03:32:20.985Z,16.84
2018-07-20T03:34:49.340Z,16.85
2018-07-20T03:37:17.656Z,16.86
2018-07-20T03:39:46.004Z,16.82
2018-07-20T03:42:14.341Z,16.81
2018-07-20T03:44:42.641Z,16.77
2018-07-20T03:47:11.191Z,16.74
2018-07-20T03:49:39.514Z,16.72
2018-07-20T03:52:08.257Z,16.70
2018-07-20T03:54:36.592Z,16.69
2018-07-20T03:57:04.961Z,16.70
2018-07-20T03:59:33.292Z,16.68
2018-07-20T04:02:01.639Z,16.68
2018-07-20T04:04:29.981Z,16.69
2018-07-20T04:06:58.333Z,16.72
2018-07-20T04:09:26.628Z,16.72
2018-07-20T04:11:55.097Z,16.73
2018-07-20T04:14:23.463Z,16.78
2018-07-20T04:16:51.780Z,16.83
2018-07-20T04:19:20.172Z,16.90
2018-07-20T04:21:54.894Z,17.03
2018-07-20T04:24:23.275Z,17.31
2018-07-20T04:26:51.613Z,17.64
2018-07-20T04:29:20.319Z,17.99
2018-07-20T04:31:48.673Z,18.33
2018-07-20T04:34:17.039Z,18.70
2018-07-20T04:36:45.357Z,19.11
2018-07-20T04:39:15.005Z,19.40
2018-07-20T04:41:43.860Z,19.55
2018-07-20T04:44:12.219Z,19.50
2018-07-20T04:46:40.732Z,19.35
2018-07-20T04:49:09.112Z,19.20
2018-07-20T04:51:37.431Z,19.22
2018-07-20T04:54:06.090Z,19.25
2018-07-20T04:56:34.385Z,19.42
2018-07-20T04:59:02.717Z,19.80
2018-07-20T05:01:31.091Z,20.27
2018-07-20T05:03:59.504Z,20.84
2018-07-20T05:06:27.823Z,21.42
2018-07-20T05:08:56.186Z,21.82
2018-07-20T05:11:24.526Z,22.05
2018-07-20T05:13:52.847Z,22.41
2018-07-20T05:16:21.200Z,22.84
2018-07-20T05:18:49.537Z,23.22
2018-07-20T05:21:17.954Z,23.55
2018-07-20T05:23:46.303Z,23.90
2018-07-20T05:26:14.674Z,24.14
2018-07-20T05:28:43.041Z,24.40
2018-07-20T05:31:11.433Z,24.77
2018-07-20T05:33:39.777Z,24.97
2018-07-20T05:36:08.178Z,25.08
2018-07-20T05:38:36.527Z,25.22
2018-07-20T05:41:04.939Z,25.32
2018-07-20T05:43:33.264Z,25.48
2018-07-20T05:46:01.594Z,25.35
2018-07-20T05:48:29.955Z,25.18
2018-07-20T05:50:58.285Z,25.19
2018-07-20T05:53:26.709Z,25.22
2018-07-20T05:55:55.017Z,25.16
2018-07-20T05:58:23.388Z,25.15
2018-07-20T06:00:51.715Z,25.05
2018-07-20T06:03:20.075Z,24.93
2018-07-20T06:05:48.414Z,24.70
2018-07-20T06:08:16.787Z,24.50
2018-07-20T06:10:45.175Z,24.37
2018-07-20T06:13:13.520Z,24.35
2018-07-20T06:15:41.856Z,24.32
2018-07-20T06:18:10.221Z,24.33
2018-07-20T06:20:38.553Z,24.35
2018-07-20T06:23:07.057Z,24.36
2018-07-20T06:25:35.547Z,24.37
2018-07-20T06:28:04.052Z,24.33
2018-07-20T06:30:32.411Z,24.40
2018-07-20T06:33:00.767Z,24.40
2018-07-20T06:35:29.111Z,24.39
2018-07-20T06:37:57.536Z,24.34
2018-07-20T06:40:25.866Z,24.24
2018-07-20T06:42:54.360Z,24.24
2018-07-20T06:45:22.694Z,24.20
2018-07-20T06:47:51.008Z,24.16
2018-07-20T06:50:19.367Z,24.22
2018-07-20T06:52:48.549Z,24.20
2018-07-20T06:55:17.024Z,24.20
2018-07-20T06:57:45.937Z,24.21
2018-07-20T07:00:14.327Z,24.31
2018-07-20T07:02:42.807Z,24.38
2018-07-20T07:05:11.777Z,24.42
2018-07-20T07:07:40.238Z,24.43
2018-07-20T07:10:09.234Z,24.44
2018-07-20T07:12:37.830Z,24.49
2018-07-20T07:15:06.439Z,24.51
2018-07-20T07:17:34.786Z,24.50
2018-07-20T07:20:03.151Z,24.52
2018-07-20T07:22:31.509Z,24.65
2018-07-20T07:24:59.822Z,24.74
2018-07-20T07:27:28.170Z,24.74
2018-07-20T07:29:56.523Z,24.81
2018-07-20T07:32:24.816Z,24.83
2018-07-20T07:34:53.216Z,24.82
2018-07-20T07:37:21.550Z,24.81
2018-07-20T07:39:49.947Z,24.90
2018-07-20T07:42:18.405Z,24.95
2018-07-20T07:44:46.700Z,24.96
2018-07-20T07:47:15.417Z,25.00
2018-07-20T07:49:43.786Z,25.11
2018-07-20T07:52:12.095Z,25.18
2018-07-20T07:54:40.427Z,25.29
2018-07-20T07:57:09.038Z,25.40
2018-07-20T07:59:37.411Z,25.47
2018-07-20T08:02:06.110Z,25.52
2018-07-20T08:04:34.513Z,25.41
2018-07-20T08:07:02.869Z,25.43
2018-07-20T08:09:31.207Z,25.57
2018-07-20T08:11:59.535Z,25.61
2018-07-20T08:14:27.901Z,25.60
2018-07-20T08:16:56.257Z,25.54
2018-07-20T08:19:24.608Z,25.47
2018-07-20T08:21:52.936Z,25.37
2018-07-20T08:24:21.290Z,25.46
2018-07-20T08:26:49.643Z,25.56
2018-07-20T08:29:18.005Z,25.67
2018-07-20T08:31:46.343Z,25.72
2018-07-20T08:34:14.665Z,25.66
2018-07-20T08:36:43.033Z,25.77
2018-07-20T08:39:11.579Z,25.88
2018-07-20T08:41:40.071Z,25.87
2018-07-20T08:44:08.417Z,25.93
2018-07-20T08:46:36.781Z,25.97
2018-07-20T08:49:05.201Z,25.98
2018-07-20T08:51:33.552Z,26.01
2018-07-20T08:54:02.027Z,26.01
2018-07-20T08:56:30.417Z,26.01
2018-07-20T08:58:58.756Z,26.13
2018-07-20T09:01:27.124Z,26.11
2018-07-20T09:03:55.559Z,26.12
2018-07-20T09:06:23.939Z,26.23
2018-07-20T09:08:52.263Z,26.32
2018-07-20T09:11:20.620Z,26.36
2018-07-20T09:13:49.096Z,26.32
2018-07-20T09:16:17.624Z,26.30
2018-07-20T09:18:45.983Z,26.32
2018-07-20T09:21:14.322Z,26.28
2018-07-20T09:23:42.657Z,26.32
2018-07-20T09:26:10.983Z,26.37
2018-07-20T09:28:39.370Z,26.42
2018-07-20T09:31:07.830Z,26.43
2018-07-20T09:33:36.172Z,26.46
2018-07-20T09:36:04.508Z,26.50
2018-07-20T09:38:32.840Z,26.48
2018-07-20T09:41:01.172Z,26.47
2018-07-20T09:43:29.585Z,26.47
2018-07-20T09:45:57.965Z,26.57
2018-07-20T09:48:26.339Z,26.60
2018-07-20T09:50:54.687Z,26.57
2018-07-20T09:53:23.003Z,26.66
2018-07-20T09:55:51.344Z,26.76
2018-07-20T09:58:19.712Z,26.79
2018-07-20T10:00:51.195Z,26.73
2018-07-20T10:03:20.541Z,26.74
2018-07-20T10:05:49.165Z,26.85
2018-07-20T10:08:18.532Z,26.94
2018-07-20T10:10:47.185Z,26.98
2018-07-20T10:13:15.832Z,27.01
2018-07-20T10:15:44.166Z,27.02
2018-07-20T10:18:12.508Z,27.04
2018-07-20T10:20:40.872Z,27.05
2018-07-20T10:23:09.211Z,27.13
2018-07-20T10:25:37.651Z,27.21
2018-07-20T10:28:05.907Z,27.19
2018-07-20T10:30:34.372Z,27.15
2018-07-20T10:33:02.804Z,27.18
2018-07-20T10:35:31.183Z,27.31
2018-07-20T10:37:59.502Z,27.47
2018-07-20T10:40:28.309Z,27.52
2018-07-20T10:42:58.196Z,27.50
2018-07-20T10:45:26.912Z,27.52
2018-07-20T10:47:55.580Z,27.63
2018-07-20T10:50:23.913Z,27.71
2018-07-20T10:52:52.265Z,27.75
2018-07-20T10:55:20.698Z,27.80
2018-07-20T10:57:49.326Z,27.91
2018-07-20T11:00:17.781Z,28.02
2018-07-20T11:02:46.487Z,28.17
2018-07-20T11:05:14.876Z,28.21
2018-07-20T11:07:43.214Z,28.23
2018-07-20T11:10:11.608Z,28.22
2018-07-20T11:12:39.928Z,28.14
2018-07-20T11:15:08.296Z,28.13
2018-07-20T11:17:36.655Z,28.20
2018-07-20T11:20:05.240Z,28.24
2018-07-20T11:22:33.547Z,28.28
2018-07-20T11:25:01.919Z,28.33
2018-07-20T11:27:30.307Z,28.34
2018-07-20T11:29:58.675Z,28.29
2018-07-20T11:32:27.155Z,28.28
2018-07-20T11:34:55.516Z,28.27
2018-07-20T11:37:23.845Z,28.32
2018-07-20T11:39:52.278Z,28.35
2018-07-20T11:42:20.656Z,28.41
2018-07-20T11:44:49.025Z,28.47
2018-07-20T11:47:17.423Z,28.52
2018-07-20T11:49:45.842Z,28.57
2018-07-20T11:52:14.201Z,28.58
2018-07-20T11:54:42.549Z,28.55
2018-07-20T11:57:10.938Z,28.50
2018-07-20T11:59:39.347Z,28.55
2018-07-20T12:02:07.741Z,28.57
2018-07-20T12:04:36.078Z,28.52
2018-07-20T12:07:04.456Z,28.51
2018-07-20T12:09:32.830Z,28.57
2018-07-20T12:12:01.225Z,28.68
2018-07-20T12:14:29.559Z,28.69
2018-07-20T12:16:57.904Z,28.66
2018-07-20T12:19:26.233Z,28.68
2018-07-20T12:21:54.550Z,28.70
2018-07-20T12:24:22.868Z,28.64
2018-07-20T12:26:51.222Z,28.68
2018-07-20T12:29:19.594Z,28.77
2018-07-20T12:31:47.908Z,28.79
2018-07-20T12:34:16.229Z,28.88
2018-07-20T12:36:44.603Z,29.03
2018-07-20T12:39:13.042Z,29.04
2018-07-20T12:41:42.040Z,29.00
2018-07-20T12:44:10.408Z,28.96
2018-07-20T12:46:39.109Z,28.94
2018-07-20T12:49:07.612Z,28.93
2018-07-20T12:51:35.957Z,28.92
2018-07-20T12:54:04.770Z,29.01
2018-07-20T12:56:33.091Z,29.00
2018-07-20T12:59:01.520Z,28.95
2018-07-20T13:01:29.812Z,29.01
2018-07-20T13:03:58.264Z,29.16
2018-07-20T13:06:26.629Z,29.23
2018-07-20T13:08:54.933Z,29.16
2018-07-20T13:11:23.322Z,29.07
2018-07-20T13:13:51.676Z,28.99
2018-07-20T13:16:20.012Z,28.99
2018-07-20T13:18:48.375Z,29.10
2018-07-20T13:21:16.695Z,29.23
2018-07-20T13:23:45.074Z,29.35
2018-07-20T13:26:13.442Z,29.43
2018-07-20T13:28:41.778Z,29.51
2018-07-20T13:31:10.134Z,29.56
2018-07-20T13:33:38.425Z,29.52
2018-07-20T13:36:06.803Z,29.46
2018-07-20T13:38:35.211Z,29.45
2018-07-20T13:41:03.557Z,29.45
2018-07-20T13:43:31.909Z,29.56
2018-07-20T13:46:00.248Z,29.65
2018-07-20T13:48:28.555Z,29.64
2018-07-20T13:50:56.913Z,29.65
2018-07-20T13:53:25.288Z,29.68
2018-07-20T13:55:53.645Z,29.69
2018-07-20T13:58:22.052Z,29.60
2018-07-20T14:00:50.540Z,29.49
2018-07-20T14:03:18.853Z,29.43
2018-07-20T14:05:47.165Z,29.41
2018-07-20T14:08:15.528Z,29.50
2018-07-20T14:10:43.913Z,29.56
2018-07-20T14:13:12.280Z,29.61
2018-07-20T14:15:40.916Z,29.68
2018-07-20T14:18:41.381Z,29.70
2018-07-20T14:21:09.798Z,29.67
2018-07-20T14:23:38.125Z,29.64
2018-07-20T14:26:06.460Z,29.53
2018-07-20T14:28:34.818Z,29.42
2018-07-20T14:31:03.176Z,29.37
2018-07-20T14:33:31.676Z,29.46
2018-07-20T14:36:00.046Z,29.54
2018-07-20T14:38:28.391Z,29.53
2018-07-20T14:40:56.887Z,29.48
2018-07-20T14:43:25.433Z,29.42
2018-07-20T14:45:53.964Z,29.41
2018-07-20T14:48:22.299Z,29.45
2018-07-20T14:50:50.703Z,29.46
2018-07-20T14:53:19.280Z,29.42
2018-07-20T14:55:47.624Z,29.40
2018-07-20T14:58:16.160Z,29.28
2018-07-20T15:00:44.514Z,29.23
2018-07-20T15:03:12.855Z,29.30
2018-07-20T15:05:41.182Z,29.41
2018-07-20T15:08:09.548Z,29.56
2018-07-20T15:10:37.882Z,29.65
2018-07-20T15:13:06.215Z,29.57
2018-07-20T15:15:34.555Z,29.55
2018-07-20T15:18:03.175Z,29.51
2018-07-20T15:20:31.456Z,29.48
2018-07-20T15:22:59.813Z,29.47
2018-07-20T15:25:28.212Z,29.34
2018-07-20T15:27:56.523Z,29.27
2018-07-20T15:30:24.834Z,29.25
2018-07-20T15:32:53.119Z,29.23
2018-07-20T15:35:21.471Z,29.18
2018-07-20T15:37:50.392Z,29.07
2018-07-20T15:40:18.859Z,29.00
2018-07-20T15:42:47.223Z,28.88
2018-07-20T15:45:15.543Z,28.80
2018-07-20T15:47:43.847Z,28.79
2018-07-20T15:50:12.214Z,28.82
2018-07-20T15:55:08.951Z,28.86
2018-07-20T15:57:37.328Z,28.79
2018-07-20T16:00:06.212Z,28.75
2018-07-20T16:02:34.435Z,28.69
2018-07-20T16:05:02.772Z,28.71
2018-07-20T16:07:31.084Z,28.75
2018-07-20T16:09:59.484Z,28.74
2018-07-20T16:12:27.845Z,28.70
2018-07-20T16:14:56.492Z,28.63
2018-07-20T16:17:24.829Z,28.57
2018-07-20T16:19:53.191Z,28.51
2018-07-20T16:22:21.529Z,28.46
2018-07-20T16:24:49.847Z,28.40
2018-07-20T16:27:18.241Z,28.38
2018-07-20T16:29:46.553Z,28.39
2018-07-20T16:32:14.898Z,28.38
2018-07-20T16:34:43.743Z,28.34
2018-07-20T16:37:12.206Z,28.39
2018-07-20T16:39:40.889Z,28.40
2018-07-20T16:42:09.998Z,28.41
2018-07-20T16:44:38.316Z,28.44
2018-07-20T16:47:06.668Z,28.42
2018-07-20T16:49:34.986Z,28.41
2018-07-20T16:52:03.311Z,28.42
2018-07-20T16:54:31.656Z,28.41
2018-07-20T16:56:59.989Z,28.42
2018-07-20T16:59:28.362Z,28.38
2018-07-20T17:01:56.644Z,28.33
2018-07-20T17:04:24.994Z,28.27
2018-07-20T17:06:53.297Z,28.24
2018-07-20T17:09:21.609Z,28.22
2018-07-20T17:11:49.931Z,28.20
2018-07-20T17:14:18.248Z,28.20
2018-07-20T17:16:46.583Z,28.19
2018-07-20T17:19:15.108Z,28.20
2018-07-20T17:21:43.557Z,28.20
2018-07-20T17:24:12.166Z,28.17
2018-07-20T17:26:40.579Z,28.22
2018-07-20T17:29:08.981Z,28.28
2018-07-20T17:31:37.293Z,28.35
2018-07-20T17:34:05.703Z,28.41
2018-07-20T17:36:34.013Z,28.41
2018-07-20T17:39:02.504Z,28.44
2018-07-20T17:41:30.852Z,28.44
2018-07-20T17:43:59.263Z,28.39
2018-07-20T17:46:27.604Z,28.33
2018-07-20T17:48:55.905Z,28.27
2018-07-20T17:51:24.254Z,28.24
2018-07-20T17:53:52.594Z,28.22
2018-07-20T17:56:20.995Z,28.20
2018-07-20T17:58:49.268Z,28.17
2018-07-20T18:01:17.644Z,28.11
2018-07-20T18:03:46.056Z,28.09
2018-07-20T18:06:14.400Z,28.08
2018-07-20T18:08:42.722Z,28.05
2018-07-20T18:11:11.052Z,27.98
2018-07-20T18:13:39.337Z,27.88
2018-07-20T18:16:07.700Z,27.81
2018-07-20T18:18:36.041Z,27.73
2018-07-20T18:21:04.380Z,27.70
2018-07-20T18:23:32.723Z,27.65
2018-07-20T18:26:01.036Z,27.61
2018-07-20T18:28:29.373Z,27.55
2018-07-20T18:30:57.709Z,27.49
2018-07-20T18:33:26.080Z,27.45
2018-07-20T18:35:54.417Z,27.43
2018-07-20T18:38:22.871Z,27.37
2018-07-20T18:40:51.240Z,27.28
2018-07-20T18:43:19.583Z,27.26
2018-07-20T18:45:47.946Z,27.19
2018-07-20T18:48:16.253Z,27.08
2018-07-20T18:50:44.591Z,26.99
2018-07-20T18:53:12.943Z,26.90
2018-07-20T18:55:41.291Z,26.81
2018-07-20T18:58:09.646Z,26.71
2018-07-20T19:00:37.960Z,26.61
2018-07-20T19:03:06.522Z,26.54
2018-07-20T19:05:34.844Z,26.48
2018-07-20T19:08:03.149Z,26.40
2018-07-20T19:10:31.503Z,26.33
2018-07-20T19:12:59.817Z,26.27
2018-07-20T19:15:28.168Z,26.19
2018-07-20T19:17:56.504Z,26.13
2018-07-20T19:20:24.874Z,26.05
2018-07-20T19:22:53.228Z,25.98
2018-07-20T19:25:21.544Z,25.90
2018-07-20T19:27:49.873Z,25.83
2018-07-20T19:30:18.243Z,25.75
2018-07-20T19:32:46.674Z,25.66
2018-07-20T19:35:15.025Z,25.59
2018-07-20T19:37:43.464Z,25.50
2018-07-20T19:40:11.807Z,25.44
2018-07-20T19:42:40.148Z,25.39
2018-07-20T19:45:08.483Z,25.34
2018-07-20T19:47:36.849Z,25.31
2018-07-20T19:50:05.441Z,25.29
2018-07-20T19:52:33.813Z,25.29
2018-07-20T19:55:02.118Z,25.25
2018-07-20T19:57:30.504Z,25.22
2018-07-20T19:59:58.870Z,25.16
2018-07-20T20:02:27.478Z,25.11
2018-07-20T20:04:55.833Z,25.07
2018-07-20T20:07:24.190Z,25.03
2018-07-20T20:09:52.528Z,25.01
2018-07-20T20:12:21.291Z,24.99
2018-07-20T20:14:49.767Z,24.95
2018-07-20T20:17:18.460Z,24.94
2018-07-20T20:19:46.857Z,24.90
2018-07-20T20:22:15.214Z,24.83
2018-07-20T20:24:43.642Z,24.81
2018-07-20T20:27:11.953Z,24.78
2018-07-20T20:29:40.354Z,24.76
2018-07-20T20:32:08.699Z,24.73
2018-07-20T20:34:37.156Z,24.69
2018-07-20T20:37:05.979Z,24.65
2018-07-20T20:39:34.312Z,24.63
2018-07-20T20:42:02.703Z,24.63
2018-07-20T20:44:31.017Z,24.61
2018-07-20T20:46:59.418Z,24.55
2018-07-20T20:49:27.792Z,24.55
2018-07-20T20:51:56.247Z,24.54
2018-07-20T20:54:24.556Z,24.50
2018-07-20T20:56:52.924Z,24.47
2018-07-20T20:59:21.924Z,24.44
2018-07-20T21:01:50.349Z,24.44
2018-07-20T21:04:18.698Z,24.42
2018-07-20T21:06:47.094Z,24.41
2018-07-20T21:09:15.448Z,24.37
2018-07-20T21:11:43.825Z,24.35
2018-07-20T21:14:12.120Z,24.31
2018-07-20T21:16:40.449Z,24.28
2018-07-20T21:19:08.867Z,24.28
2018-07-20T21:21:37.244Z,24.27
2018-07-20T21:24:05.923Z,24.25
2018-07-20T21:26:34.236Z,24.25
2018-07-20T21:29:02.762Z,24.23
2018-07-20T21:31:31.109Z,24.18
2018-07-20T21:33:59.476Z,24.15
2018-07-20T21:36:27.856Z,24.13
2018-07-20T21:38:56.333Z,24.12
2018-07-20T21:41:24.669Z,24.09
2018-07-20T21:43:52.997Z,24.05
2018-07-20T21:46:21.329Z,24.02
2018-07-20T21:48:49.730Z,23.98
2018-07-20T21:51:18.037Z,23.97
2018-07-20T21:53:46.386Z,23.95
2018-07-20T21:56:14.692Z,23.89
2018-07-20T21:58:43.006Z,23.83
2018-07-20T22:01:11.376Z,23.77
2018-07-20T22:03:39.725Z,23.75
2018-07-20T22:06:08.218Z,23.70
2018-07-20T22:08:36.549Z,23.61
2018-07-20T22:11:04.920Z,23.57
2018-07-20T22:13:33.265Z,23.55
2018-07-20T22:16:01.634Z,23.52
2018-07-20T22:18:30.072Z,23.48
2018-07-20T22:20:58.431Z,23.45
2018-07-20T22:23:26.878Z,23.42
2018-07-20T22:25:55.216Z,23.36
2018-07-20T22:28:23.524Z,23.34
2018-07-20T22:30:51.890Z,23.33
2018-07-20T22:33:20.247Z,23.33
2018-07-20T22:35:48.698Z,23.33
2018-07-20T22:38:17.028Z,23.34
2018-07-20T22:40:45.403Z,23.30
2018-07-20T22:43:13.776Z,23.25
2018-07-20T22:45:42.133Z,23.18
2018-07-20T22:48:10.680Z,23.10
2018-07-20T22:50:39.020Z,23.04
2018-07-20T22:53:07.364Z,23.00
2018-07-20T22:55:35.707Z,22.91
2018-07-20T22:58:04.080Z,22.82
2018-07-20T23:00:32.440Z,22.65
2018-07-20T23:03:00.753Z,22.48
2018-07-20T23:05:29.303Z,22.41
2018-07-20T23:07:57.691Z,22.38
2018-07-20T23:10:26.033Z,22.33
2018-07-20T23:12:54.384Z,22.29
2018-07-20T23:15:22.703Z,22.29
2018-07-20T23:17:51.059Z,22.26
2018-07-20T23:20:19.377Z,22.22
2018-07-20T23:22:47.666Z,22.12
2018-07-20T23:25:16.009Z,22.04
2018-07-20T23:27:44.341Z,21.98
2018-07-20T23:30:12.691Z,21.94
2018-07-20T23:32:41.010Z,21.91
2018-07-20T23:35:09.415Z,21.95
2018-07-20T23:37:37.823Z,21.92
2018-07-20T23:40:06.183Z,21.90
2018-07-20T23:42:34.557Z,21.88
2018-07-20T23:45:03.030Z,21.88
2018-07-20T23:47:31.366Z,21.91
2018-07-20T23:49:59.680Z,21.97
2018-07-20T23:52:28.023Z,22.01
2018-07-20T23:54:56.446Z,22.06
2018-07-20T23:57:24.757Z,22.07
